Time;durP1;ratioP1;P1;durP2;ratioP2;P2;SDS_P1;SDS_P2;PMS_P1;PMS_P2;Temp;Humidity;BMP_temperature;BMP_pressure;BME280_temperature;BME280_humidity;BME280_pressure;Samples;Min_cycle;Max_cycle;Signal;HPM_P1;HPM_P2
2021/05/24 00:01:32;;;;;;;6.97;2.05;;;33.50;10.10;;;;;;5051884;28;20470;-55
2021/05/24 00:03:59;;;;;;;11.65;2.10;;;33.60;10.00;;;;;;5051761;28;20077;-58
2021/05/24 00:06:25;;;;;;;12.32;2.13;;;33.60;9.80;;;;;;5052861;28;20085;-56
2021/05/24 00:08:52;;;;;;;17.85;2.88;;;33.60;9.40;;;;;;5052758;28;20539;-58
2021/05/24 00:11:18;;;;;;;13.32;2.38;;;33.50;9.90;;;;;;5052225;28;20131;-58
2021/05/24 00:13:53;;;;;;;11.00;2.47;;;33.50;10.40;;;;;;5052868;28;20073;-59
2021/05/24 00:16:20;;;;;;;18.90;2.40;;;33.40;10.30;;;;;;5052025;28;20121;-56
2021/05/24 00:18:50;;;;;;;17.48;3.28;;;33.40;9.90;;;;;;5051388;28;20420;-55
2021/05/24 00:21:19;;;;;;;18.33;2.55;;;33.40;9.70;;;;;;5035052;28;20547;-51
2021/05/24 00:23:47;;;;;;;13.02;2.47;;;33.20;10.20;;;;;;5052038;28;20135;-52
2021/05/24 00:26:15;;;;;;;12.65;2.10;;;33.20;10.40;;;;;;5033379;28;20170;-50
2021/05/24 00:28:42;;;;;;;6.32;2.15;;;33.00;10.10;;;;;;5050904;28;20664;-52
2021/05/24 00:31:09;;;;;;;9.60;2.25;;;33.00;10.00;;;;;;5051370;28;20176;-52
2021/05/24 00:33:35;;;;;;;11.48;2.08;;;32.90;10.00;;;;;;5050841;28;20066;-53
2021/05/24 00:36:02;;;;;;;21.58;3.70;;;33.00;9.80;;;;;;5052015;28;20104;-55
2021/05/24 00:38:28;;;;;;;15.75;2.20;;;32.80;10.10;;;;;;5050628;28;20093;-56
2021/05/24 00:40:55;;;;;;;12.93;2.42;;;32.80;10.10;;;;;;5051119;28;20534;-53
2021/05/24 00:43:22;;;;;;;9.10;2.05;;;32.90;10.50;;;;;;5050454;28;20116;-56
2021/05/24 00:45:48;;;;;;;10.90;2.35;;;32.90;10.30;;;;;;5050609;28;20074;-55
2021/05/24 00:48:14;;;;;;;13.70;2.65;;;32.90;10.60;;;;;;5050528;28;20550;-55
2021/05/24 00:50:41;;;;;;;11.77;2.20;;;33.00;10.70;;;;;;5049711;28;20529;-54
2021/05/24 00:53:08;;;;;;;9.73;2.20;;;32.80;10.20;;;;;;5052890;28;20131;-52
2021/05/24 00:55:35;;;;;;;11.93;2.38;;;32.70;10.70;;;;;;5048969;28;20587;-56
2021/05/24 00:58:04;;;;;;;18.48;3.40;;;32.60;10.70;;;;;;5051046;28;20359;-54
2021/05/24 01:00:45;;;;;;;12.80;2.13;;;32.60;10.80;;;;;;5051147;28;20204;-56
2021/05/24 01:03:13;;;;;;;8.73;2.30;;;32.60;10.60;;;;;;5049736;28;20128;-55
2021/05/24 01:05:42;;;;;;;12.50;2.35;;;32.50;10.60;;;;;;5051073;28;20066;-51
2021/05/24 01:08:11;;;;;;;14.43;2.80;;;32.50;10.60;;;;;;5050899;28;20554;-50
2021/05/24 01:10:38;;;;;;;34.83;8.63;;;32.40;10.10;;;;;;5051777;28;20440;-51
2021/05/24 01:13:07;;;;;;;14.60;4.00;;;32.40;10.70;;;;;;5051817;28;20065;-51
2021/05/24 01:15:35;;;;;;;15.85;3.13;;;32.30;11.00;;;;;;5051221;28;20558;-50
2021/05/24 01:18:02;;;;;;;20.38;2.33;;;32.30;11.50;;;;;;5051449;28;20105;-53
2021/05/24 01:20:29;;;;;;;13.57;2.60;;;32.20;11.70;;;;;;5051646;28;20144;-51
2021/05/24 01:23:20;;;;;;;11.25;2.92;;;32.20;12.00;;;;;;5050691;28;20070;-50
2021/05/24 01:25:53;;;;;;;13.82;4.13;;;32.10;11.90;;;;;;5050865;28;20135;-50
2021/05/24 01:28:21;;;;;;;15.90;4.18;;;32.10;12.00;;;;;;5051098;28;20092;-53
2021/05/24 01:30:48;;;;;;;10.13;2.13;;;32.00;12.00;;;;;;5051340;28;20101;-53
2021/05/24 01:33:17;;;;;;;11.77;2.40;;;31.90;11.80;;;;;;5050986;28;20070;-56
2021/05/24 01:35:44;;;;;;;11.55;2.42;;;31.80;11.80;;;;;;5051086;28;20099;-54
2021/05/24 01:38:12;;;;;;;19.05;3.45;;;31.60;12.10;;;;;;5051446;28;20081;-56
2021/05/24 01:40:41;;;;;;;10.73;2.20;;;31.50;12.00;;;;;;5051479;28;20462;-55
2021/05/24 01:43:12;;;;;;;18.40;3.22;;;31.50;12.00;;;;;;5050468;28;20100;-53
2021/05/24 01:45:39;;;;;;;21.65;2.45;;;31.50;11.90;;;;;;5051572;28;20080;-53
2021/05/24 01:48:06;;;;;;;13.05;2.60;;;31.50;12.00;;;;;;5033236;28;20099;-53
2021/05/24 01:50:32;;;;;;;16.35;2.88;;;31.60;12.00;;;;;;5051357;28;20171;-53
2021/05/24 01:53:01;;;;;;;9.57;2.10;;;31.60;11.70;;;;;;5051351;28;20093;-52
2021/05/24 01:55:28;;;;;;;17.05;2.35;;;31.50;12.00;;;;;;5051116;28;20069;-55
2021/05/24 01:57:55;;;;;;;10.70;2.45;;;31.50;11.90;;;;;;5050061;28;20084;-52
2021/05/24 02:00:24;;;;;;;12.70;2.47;;;31.20;12.20;;;;;;5038312;28;20117;-55
2021/05/24 02:02:53;;;;;;;9.82;2.38;;;30.90;12.00;;;;;;5028013;28;20165;-53
2021/05/24 02:05:21;;;;;;;12.00;2.60;;;30.70;12.00;;;;;;5022650;28;20452;-55
2021/05/24 02:07:48;;;;;;;13.82;2.85;;;30.60;12.10;;;;;;5018349;28;20154;-50
2021/05/24 02:10:22;;;;;;;10.88;2.60;;;30.30;12.30;;;;;;5019817;28;20112;-52
2021/05/24 02:12:49;;;;;;;16.08;2.63;;;30.20;12.40;;;;;;5018434;28;20075;-52
2021/05/24 02:15:23;;;;;;;13.65;3.08;;;30.10;12.70;;;;;;5025136;28;20082;-55
2021/05/24 02:17:50;;;;;;;13.82;3.17;;;29.60;30.90;;;;;;5019261;28;20472;-53
2021/05/24 02:20:19;;;;;;;14.32;3.20;;;29.60;19.70;;;;;;5028518;28;20074;-56
2021/05/24 02:22:45;;;;;;;12.52;3.25;;;29.80;13.00;;;;;;5019772;28;20519;-53
2021/05/24 02:25:13;;;;;;;12.52;3.15;;;29.50;36.90;;;;;;5022859;28;20077;-54
2021/05/24 02:27:40;;;;;;;12.73;3.40;;;30.00;39.40;;;;;;5017739;28;20135;-52
2021/05/24 02:30:09;;;;;;;14.30;3.83;;;29.40;14.00;;;;;;5024117;28;20069;-51
2021/05/24 02:32:35;;;;;;;18.70;3.53;;;29.30;14.50;;;;;;5025151;28;20070;-53
2021/05/24 02:35:03;;;;;;;14.65;2.50;;;29.20;13.10;;;;;;5026695;28;20536;-52
2021/05/24 02:37:30;;;;;;;11.98;2.78;;;;;;;;;;5025408;28;20070;-53
2021/05/24 02:39:57;;;;;;;17.88;2.30;;;29.10;39.40;;;;;;5025923;28;20114;-54
2021/05/24 02:42:23;;;;;;;12.15;3.38;;;28.80;31.70;;;;;;5009842;28;20158;-57
2021/05/24 02:44:50;;;;;;;12.60;3.08;;;29.10;29.40;;;;;;5028341;28;20126;-57
2021/05/24 02:47:17;;;;;;;13.75;3.10;;;29.00;35.90;;;;;;5026647;28;20108;-57
2021/05/24 02:49:44;;;;;;;19.63;3.63;;;28.70;33.20;;;;;;5023739;28;20078;-57
2021/05/24 02:52:12;;;;;;;8.88;3.10;;;28.70;13.70;;;;;;5029381;28;20097;-51
2021/05/24 02:54:39;;;;;;;24.33;3.53;;;28.60;13.30;;;;;;5026140;28;20070;-55
2021/05/24 02:57:06;;;;;;;17.83;3.67;;;28.50;13.40;;;;;;5022536;28;20100;-55
2021/05/24 02:59:32;;;;;;;21.75;3.88;;;28.50;13.80;;;;;;5039906;28;20109;-55
2021/05/24 03:02:02;;;;;;;11.55;3.42;;;28.50;13.80;;;;;;5045181;28;20782;-57
2021/05/24 03:04:30;;;;;;;24.73;3.40;;;28.00;35.70;;;;;;5052447;28;20069;-54
2021/05/24 03:06:57;;;;;;;12.27;3.60;;;28.30;13.90;;;;;;5055102;28;20082;-56
2021/05/24 03:09:23;;;;;;;21.88;3.80;;;28.00;34.10;;;;;;5058960;28;20077;-55
2021/05/24 03:11:51;;;;;;;16.52;4.50;;;28.20;14.30;;;;;;5051594;28;20105;-57
2021/05/24 03:14:18;;;;;;;17.13;4.15;;;28.10;14.20;;;;;;5054497;28;20097;-56
2021/05/24 03:16:44;;;;;;;18.20;3.75;;;28.00;14.40;;;;;;5042184;28;20077;-57
2021/05/24 03:19:10;;;;;;;28.90;4.65;;;28.00;14.40;;;;;;5057951;28;20139;-56
2021/05/24 03:21:37;;;;;;;19.20;4.07;;;28.00;14.60;;;;;;5056812;28;20083;-55
2021/05/24 03:24:04;;;;;;;22.00;4.20;;;28.00;14.80;;;;;;5054096;28;20070;-57
2021/05/24 03:26:31;;;;;;;22.92;4.30;;;27.90;14.80;;;;;;5049833;28;20105;-56
2021/05/24 03:28:57;;;;;;;19.88;4.95;;;27.90;15.10;;;;;;5051006;28;20579;-56
2021/05/24 03:31:23;;;;;;;32.28;8.68;;;27.80;15.30;;;;;;5054687;28;20596;-53
2021/05/24 03:33:50;;;;;;;37.97;12.68;;;27.70;15.70;;;;;;5050522;28;20100;-54
2021/05/24 03:36:16;;;;;;;36.22;14.48;;;27.70;15.50;;;;;;5046548;28;20424;-54
2021/05/24 03:38:43;;;;;;;43.40;15.38;;;27.60;15.60;;;;;;5050350;28;20547;-49
2021/05/24 03:41:10;;;;;;;49.05;14.00;;;27.50;15.50;;;;;;5046949;28;20554;-53
2021/05/24 03:43:36;;;;;;;37.08;11.77;;;27.40;15.60;;;;;;5056072;28;20077;-53
2021/05/24 03:46:03;;;;;;;35.05;9.15;;;27.30;15.80;;;;;;5053384;28;20101;-55
2021/05/24 03:48:30;;;;;;;40.95;10.38;;;27.30;16.20;;;;;;5055399;28;20482;-53
2021/05/24 03:50:56;;;;;;;31.58;8.85;;;26.90;21.10;;;;;;5050551;28;20384;-53
2021/05/24 03:53:23;;;;;;;31.52;8.15;;;26.90;15.80;;;;;;5052959;28;20090;-55
2021/05/24 03:55:49;;;;;;;36.05;7.00;;;27.00;16.20;;;;;;5047914;28;20476;-54
2021/05/24 03:58:16;;;;;;;40.55;7.25;;;26.90;16.30;;;;;;5057017;28;20078;-54
2021/05/24 04:00:42;;;;;;;35.80;6.70;;;26.90;16.40;;;;;;5047651;28;20315;-58
2021/05/24 04:03:09;;;;;;;68.00;8.38;;;26.80;16.40;;;;;;5046842;28;20076;-56
2021/05/24 04:05:38;;;;;;;113.07;10.48;;;26.80;16.60;;;;;;5051376;28;20082;-58
2021/05/24 04:08:07;;;;;;;90.47;10.05;;;26.70;16.60;;;;;;5043115;28;20074;-57
2021/05/24 04:10:50;;;;;;;84.75;8.18;;;26.70;16.60;;;;;;5051864;28;20101;-56
2021/05/24 04:13:17;;;;;;;74.65;9.30;;;26.60;16.60;;;;;;5047081;28;20077;-54
2021/05/24 04:15:49;;;;;;;63.25;7.80;;;26.60;16.60;;;;;;5052106;28;20078;-53
2021/05/24 04:18:17;;;;;;;50.30;7.70;;;26.50;16.40;;;;;;5054702;28;20437;-55
2021/05/24 04:20:46;;;;;;;59.58;8.68;;;26.50;16.60;;;;;;5053133;28;20091;-57
2021/05/24 04:23:14;;;;;;;73.78;9.80;;;26.30;16.40;;;;;;5051083;28;20081;-55
2021/05/24 04:25:40;;;;;;;44.70;8.40;;;26.40;20.40;;;;;;5051620;28;20075;-53
2021/05/24 04:28:07;;;;;;;44.38;8.13;;;26.40;16.80;;;;;;5052133;28;20081;-54
2021/05/24 04:30:34;;;;;;;35.55;7.53;;;26.30;17.10;;;;;;5051748;28;20085;-54
2021/05/24 04:33:00;;;;;;;41.67;8.00;;;26.30;17.20;;;;;;5051636;28;20106;-56
2021/05/24 04:35:27;;;;;;;44.88;9.75;;;26.20;17.50;;;;;;5034038;28;20543;-55
2021/05/24 04:37:54;;;;;;;37.78;9.15;;;26.10;19.70;;;;;;5017959;28;20089;-57
2021/05/24 04:40:20;;;;;;;36.63;7.38;;;26.20;19.20;;;;;;5052300;28;20086;-54
2021/05/24 04:42:48;;;;;;;38.03;9.60;;;26.10;17.00;;;;;;5050391;28;20101;-54
2021/05/24 04:45:15;;;;;;;42.50;8.95;;;26.10;17.00;;;;;;5051529;28;20074;-56
2021/05/24 04:47:42;;;;;;;41.10;8.52;;;26.00;17.30;;;;;;5051545;28;20156;-53
2021/05/24 04:50:09;;;;;;;35.47;7.95;;;26.00;17.70;;;;;;5037017;28;20507;-56
2021/05/24 04:52:36;;;;;;;40.42;8.02;;;26.10;21.50;;;;;;5037787;28;20154;-54
2021/05/24 04:55:05;;;;;;;38.92;7.45;;;26.00;18.00;;;;;;5040469;28;20070;-56
2021/05/24 04:57:31;;;;;;;36.63;7.93;;;26.00;21.30;;;;;;5047786;28;20566;-54
2021/05/24 04:59:58;;;;;;;44.03;8.52;;;25.90;20.00;;;;;;5048286;28;20205;-57
2021/05/24 05:02:24;;;;;;;42.42;6.70;;;25.90;18.10;;;;;;5042854;28;20155;-52
2021/05/24 05:04:51;;;;;;;40.75;7.00;;;25.80;21.00;;;;;;5040342;28;20173;-57
2021/05/24 05:07:17;;;;;;;46.60;6.85;;;25.80;22.10;;;;;;5037678;28;20078;-54
2021/05/24 05:09:44;;;;;;;38.58;6.68;;;25.80;19.00;;;;;;5033677;28;20088;-55
2021/05/24 05:12:11;;;;;;;36.97;6.05;;;25.80;19.20;;;;;;5044549;28;20128;-57
2021/05/24 05:14:37;;;;;;;30.02;5.80;;;25.70;19.20;;;;;;5047525;28;20454;-55
2021/05/24 05:17:03;;;;;;;35.72;5.78;;;25.70;19.30;;;;;;5041471;28;20499;-57
2021/05/24 05:19:30;;;;;;;23.80;5.53;;;25.70;19.20;;;;;;5051244;28;20430;-56
2021/05/24 05:21:57;;;;;;;26.05;5.60;;;25.70;19.30;;;;;;5033517;28;20156;-56
2021/05/24 05:24:23;;;;;;;28.98;5.65;;;25.60;19.40;;;;;;5050694;28;20084;-58
2021/05/24 05:26:50;;;;;;;30.25;6.13;;;25.60;19.80;;;;;;5039301;28;20532;-52
2021/05/24 05:29:16;;;;;;;31.20;5.20;;;25.60;19.60;;;;;;5046584;28;20100;-57
2021/05/24 05:31:43;;;;;;;30.92;5.82;;;25.60;19.70;;;;;;5033157;28;20098;-52
2021/05/24 05:34:09;;;;;;;32.97;5.40;;;25.50;19.90;;;;;;5048931;28;20074;-56
2021/05/24 05:36:37;;;;;;;27.05;5.10;;;25.40;19.80;;;;;;5049937;28;20108;-57
2021/05/24 05:39:05;;;;;;;33.65;5.00;;;25.40;20.00;;;;;;5051414;28;20406;-56
2021/05/24 05:41:33;;;;;;;23.73;5.03;;;25.30;20.10;;;;;;5048324;28;20105;-55
2021/05/24 05:44:00;;;;;;;30.27;4.90;;;25.20;20.30;;;;;;5043079;28;20081;-55
2021/05/24 05:46:26;;;;;;;30.50;5.10;;;25.20;20.50;;;;;;5042116;28;20082;-55
2021/05/24 05:48:53;;;;;;;27.33;4.78;;;25.20;20.80;;;;;;5049335;28;20138;-56
2021/05/24 05:51:19;;;;;;;27.58;4.88;;;25.10;20.90;;;;;;5048417;28;20180;-56
2021/05/24 05:53:46;;;;;;;31.85;5.20;;;25.10;21.10;;;;;;5045736;28;20077;-54
2021/05/24 05:56:12;;;;;;;31.77;3.75;;;25.10;21.40;;;;;;5044877;28;20120;-55
2021/05/24 05:58:39;;;;;;;31.10;3.65;;;25.10;21.60;;;;;;5049967;28;20084;-56
2021/05/24 06:01:06;;;;;;;28.60;3.17;;;25.00;21.70;;;;;;5050243;28;20128;-53
2021/05/24 06:03:33;;;;;;;34.38;3.95;;;25.00;21.80;;;;;;5042831;28;20084;-52
2021/05/24 06:06:00;;;;;;;18.00;3.42;;;24.90;21.90;;;;;;5049938;28;20093;-56
2021/05/24 06:08:27;;;;;;;31.75;3.60;;;24.80;21.80;;;;;;5049487;28;20438;-55
2021/05/24 06:10:56;;;;;;;23.65;3.72;;;24.80;22.10;;;;;;5049762;28;20093;-56
2021/05/24 06:13:22;;;;;;;20.98;3.72;;;24.80;22.30;;;;;;5041185;28;20188;-53
2021/05/24 06:15:49;;;;;;;27.35;3.75;;;24.80;22.20;;;;;;5049232;28;20423;-52
2021/05/24 06:18:15;;;;;;;19.45;3.78;;;24.70;22.00;;;;;;5050898;28;20443;-53
2021/05/24 06:20:43;;;;;;;22.50;3.47;;;24.70;21.70;;;;;;5036138;28;20077;-55
2021/05/24 06:23:10;;;;;;;26.85;3.25;;;24.90;32.00;;;;;;5054224;28;20445;-56
2021/05/24 06:25:38;;;;;;;19.48;2.80;;;24.70;22.20;;;;;;5054462;28;20069;-49
2021/05/24 06:28:05;;;;;;;24.58;2.95;;;24.60;22.20;;;;;;5054050;28;20085;-51
2021/05/24 06:30:31;;;;;;;19.58;3.28;;;24.60;22.30;;;;;;5054745;28;20089;-52
2021/05/24 06:32:58;;;;;;;22.85;3.90;;;24.60;22.30;;;;;;5049457;28;20080;-51
2021/05/24 06:35:26;;;;;;;20.50;3.92;;;24.50;22.30;;;;;;5046139;28;20532;-51
2021/05/24 06:37:53;;;;;;;24.90;4.38;;;24.50;22.20;;;;;;5045656;28;20455;-53
2021/05/24 06:40:20;;;;;;;19.70;3.92;;;24.50;22.20;;;;;;5053276;28;20065;-51
2021/05/24 06:42:47;;;;;;;24.58;4.10;;;24.50;22.60;;;;;;5053754;28;20078;-53
2021/05/24 06:45:19;;;;;;;14.98;3.60;;;24.50;22.00;;;;;;5054307;28;20080;-53
2021/05/24 06:47:47;;;;;;;20.55;3.53;;;24.50;21.90;;;;;;5043528;28;20407;-54
2021/05/24 06:50:15;;;;;;;17.17;3.40;;;24.40;21.60;;;;;;5052727;28;20161;-53
2021/05/24 06:52:42;;;;;;;23.40;3.30;;;24.40;21.30;;;;;;5053227;28;20095;-52
2021/05/24 06:55:10;;;;;;;16.58;2.60;;;24.30;21.00;;;;;;5043505;28;20105;-51
2021/05/24 06:57:36;;;;;;;12.63;2.97;;;24.30;20.60;;;;;;5047004;28;20164;-52
2021/05/24 07:00:06;;;;;;;13.57;2.30;;;24.30;20.40;;;;;;5035781;28;20476;-52
2021/05/24 07:02:33;;;;;;;14.90;2.70;;;24.30;20.10;;;;;;5046664;28;21380;-53
2021/05/24 07:04:59;;;;;;;11.77;3.03;;;24.30;19.80;;;;;;5045006;28;20105;-54
2021/05/24 07:07:26;;;;;;;12.25;2.50;;;24.30;19.60;;;;;;5046600;28;20069;-50
2021/05/24 07:09:52;;;;;;;12.35;2.90;;;24.30;19.40;;;;;;5046879;28;20069;-53
2021/05/24 07:12:19;;;;;;;13.93;3.35;;;24.30;19.40;;;;;;5045303;28;20109;-51
2021/05/24 07:14:50;;;;;;;14.50;2.33;;;24.30;18.70;;;;;;5045566;28;20155;-51
2021/05/24 07:17:17;;;;;;;9.50;2.30;;;24.30;18.40;;;;;;5046571;28;20106;-50
2021/05/24 07:19:44;;;;;;;13.02;2.45;;;24.30;18.10;;;;;;5042711;28;20073;-54
2021/05/24 07:22:10;;;;;;;11.20;2.38;;;24.30;18.00;;;;;;5043831;28;20074;-56
2021/05/24 07:24:37;;;;;;;10.15;2.45;;;24.30;17.90;;;;;;5048347;28;20066;-57
2021/05/24 07:27:06;;;;;;;18.15;2.30;;;24.30;17.70;;;;;;5048736;28;20123;-53
2021/05/24 07:29:32;;;;;;;12.23;2.20;;;24.30;17.60;;;;;;5044585;28;20127;-54
2021/05/24 07:31:59;;;;;;;10.50;2.10;;;24.20;17.40;;;;;;5038164;28;20455;-54
2021/05/24 07:34:25;;;;;;;11.07;2.20;;;24.20;17.50;;;;;;5046408;28;20077;-52
2021/05/24 07:36:52;;;;;;;4.85;1.80;;;24.20;17.50;;;;;;5036645;28;20078;-51
2021/05/24 07:39:19;;;;;;;6.07;1.83;;;24.20;17.20;;;;;;5046131;28;20074;-50
2021/05/24 07:41:45;;;;;;;7.30;2.45;;;24.20;17.20;;;;;;5047403;28;20082;-51
2021/05/24 07:44:12;;;;;;;7.70;1.92;;;24.10;17.10;;;;;;5045402;28;20542;-52
2021/05/24 07:46:38;;;;;;;7.95;2.00;;;24.10;16.90;;;;;;5046137;28;20128;-50
2021/05/24 07:49:05;;;;;;;6.63;1.80;;;24.10;17.00;;;;;;5042722;28;20069;-54
2021/05/24 07:51:31;;;;;;;9.02;2.25;;;24.10;17.00;;;;;;5044636;28;20152;-54
2021/05/24 07:53:58;;;;;;;16.90;2.03;;;24.10;17.00;;;;;;5048490;28;20084;-52
2021/05/24 07:56:24;;;;;;;16.05;2.25;;;24.00;16.90;;;;;;5043642;28;20078;-52
2021/05/24 07:58:51;;;;;;;9.30;2.20;;;24.00;17.00;;;;;;5044764;28;20080;-51
2021/05/24 08:01:17;;;;;;;4.68;1.42;;;23.90;16.90;;;;;;5057289;28;20199;-53
2021/05/24 08:03:44;;;;;;;7.88;1.50;;;23.80;17.00;;;;;;5047990;28;20458;-53
2021/05/24 08:06:10;;;;;;;7.95;1.75;;;23.80;17.00;;;;;;5050958;28;20115;-52
2021/05/24 08:08:37;;;;;;;10.18;1.85;;;23.80;17.00;;;;;;5052786;28;20070;-52
2021/05/24 08:11:03;;;;;;;11.35;2.00;;;23.80;17.10;;;;;;5050360;28;20196;-51
2021/05/24 08:13:30;;;;;;;6.22;1.73;;;23.70;17.00;;;;;;5053400;28;20081;-55
2021/05/24 08:15:56;;;;;;;5.85;2.00;;;23.70;16.90;;;;;;5044332;28;20078;-54
2021/05/24 08:18:23;;;;;;;9.63;1.95;;;23.60;23.80;;;;;;5040043;28;20106;-51
2021/05/24 08:20:50;;;;;;;7.93;1.77;;;23.60;17.30;;;;;;5050997;28;20073;-51
2021/05/24 08:23:17;;;;;;;11.90;2.40;;;23.50;23.30;;;;;;5053589;28;20077;-53
2021/05/24 08:25:43;;;;;;;7.35;2.25;;;23.50;17.00;;;;;;5042803;28;20085;-56
2021/05/24 08:28:10;;;;;;;8.52;2.03;;;23.60;16.90;;;;;;5033607;28;20163;-53
2021/05/24 08:30:37;;;;;;;6.38;1.80;;;23.60;16.90;;;;;;5047317;28;20105;-51
2021/05/24 08:33:04;;;;;;;11.65;1.95;;;23.60;16.80;;;;;;5048041;28;20086;-54
2021/05/24 08:35:30;;;;;;;11.75;1.90;;;23.60;16.90;;;;;;5055849;28;20100;-55
2021/05/24 08:37:57;;;;;;;7.80;1.73;;;23.50;17.00;;;;;;5056444;28;20111;-54
2021/05/24 08:40:24;;;;;;;8.90;2.22;;;23.50;17.00;;;;;;5054374;28;20074;-51
2021/05/24 08:42:51;;;;;;;8.80;1.95;;;23.40;17.10;;;;;;5053180;28;20081;-54
2021/05/24 08:45:18;;;;;;;5.45;1.70;;;23.40;17.10;;;;;;5046483;28;20066;-54
2021/05/24 08:47:44;;;;;;;7.63;1.80;;;23.40;17.10;;;;;;5051472;28;20116;-53
2021/05/24 08:50:13;;;;;;;8.25;2.00;;;23.40;17.40;;;;;;5049165;28;20086;-52
2021/05/24 08:52:40;;;;;;;8.52;1.92;;;23.30;16.80;;;;;;5041366;28;20169;-55
2021/05/24 08:55:07;;;;;;;8.38;1.80;;;23.30;16.70;;;;;;5048158;28;20101;-53
2021/05/24 08:57:38;;;;;;;6.22;1.83;;;23.30;17.00;;;;;;5054161;28;20164;-54
2021/05/24 09:00:07;;;;;;;9.50;1.48;;;23.30;17.00;;;;;;5037966;28;20118;-54
2021/05/24 09:02:40;;;;;;;10.70;2.00;;;23.30;16.90;;;;;;5032268;28;20074;-53
2021/05/24 09:05:09;;;;;;;9.70;1.80;;;23.30;16.90;;;;;;5031478;28;20177;-52
2021/05/24 09:07:53;;;;;;;7.72;1.40;;;23.30;17.10;;;;;;5032504;28;20534;-50
2021/05/24 09:10:21;;;;;;;10.10;1.60;;;23.20;17.10;;;;;;5032136;28;20531;-52
2021/05/24 09:12:48;;;;;;;5.57;1.30;;;23.20;17.00;;;;;;5031450;28;20089;-54
2021/05/24 09:15:16;;;;;;;7.15;1.90;;;23.10;17.00;;;;;;5032089;28;20588;-54
2021/05/24 09:17:55;;;;;;;9.82;1.50;;;23.10;17.00;;;;;;5032284;28;20503;-55
2021/05/24 09:20:24;;;;;;;9.23;1.60;;;23.10;16.90;;;;;;5023847;28;20082;-51
2021/05/24 09:23:12;;;;;;;8.60;1.70;;;23.10;16.80;;;;;;5031631;28;20074;-51
2021/05/24 09:25:47;;;;;;;7.22;1.70;;;23.10;16.80;;;;;;5031942;28;20494;-50
2021/05/24 09:28:34;;;;;;;7.47;1.90;;;23.00;16.90;;;;;;5031438;28;20084;-51
2021/05/24 09:31:07;;;;;;;9.40;1.70;;;23.00;16.90;;;;;;5031735;28;20571;-50
2021/05/24 09:33:36;;;;;;;5.60;1.83;;;23.00;16.90;;;;;;5031979;28;20102;-51
2021/05/24 09:36:03;;;;;;;7.30;1.55;;;23.00;17.00;;;;;;5031734;28;20086;-52
2021/05/24 09:38:38;;;;;;;7.95;2.10;;;23.00;17.20;;;;;;5030928;28;20074;-56
2021/05/24 09:41:06;;;;;;;6.85;1.55;;;23.00;17.50;;;;;;5031465;28;20116;-50
2021/05/24 09:43:37;;;;;;;9.43;2.00;;;22.90;17.90;;;;;;5032610;28;20149;-53
2021/05/24 09:46:28;;;;;;;8.63;1.75;;;22.90;18.30;;;;;;5031649;28;20078;-49
2021/05/24 09:49:04;;;;;;;11.93;1.92;;;22.90;18.60;;;;;;5024212;28;20109;-53
2021/05/24 09:51:33;;;;;;;6.10;1.77;;;22.90;18.70;;;;;;5031353;28;20505;-50
2021/05/24 09:54:04;;;;;;;8.60;2.05;;;22.80;19.10;;;;;;5030463;28;20082;-53
2021/05/24 09:56:33;;;;;;;8.82;1.77;;;22.90;19.60;;;;;;5030067;28;20435;-54
2021/05/24 09:59:13;;;;;;;10.50;2.35;;;22.70;19.90;;;;;;5030885;28;20066;-52
2021/05/24 10:01:43;;;;;;;15.02;2.53;;;22.70;20.50;;;;;;5031161;28;20074;-52
2021/05/24 10:04:18;;;;;;;10.07;2.20;;;22.70;21.00;;;;;;5030843;28;20081;-49
2021/05/24 10:06:45;;;;;;;9.85;2.22;;;22.70;21.60;;;;;;5030215;28;20084;-51
2021/05/24 10:09:13;;;;;;;11.85;2.10;;;22.70;22.00;;;;;;5030899;28;20081;-51
2021/05/24 10:11:45;;;;;;;13.25;2.25;;;22.70;22.20;;;;;;5029785;28;20594;-50
2021/05/24 10:14:16;;;;;;;14.95;2.97;;;22.60;22.40;;;;;;5031026;28;20074;-51
2021/05/24 10:16:48;;;;;;;15.52;1.95;;;22.60;22.80;;;;;;5030628;28;20442;-53
2021/05/24 10:19:17;;;;;;;15.13;2.50;;;22.60;22.90;;;;;;5030492;28;20174;-51
2021/05/24 10:21:46;;;;;;;15.13;2.50;;;22.60;23.00;;;;;;5031255;28;20089;-53
2021/05/24 10:24:14;;;;;;;12.80;1.95;;;22.50;23.00;;;;;;5030779;28;20082;-51
2021/05/24 10:26:43;;;;;;;10.45;2.90;;;22.50;23.20;;;;;;5030151;28;20078;-51
2021/05/24 10:29:11;;;;;;;16.38;2.80;;;22.40;23.30;;;;;;5030597;28;20109;-51
2021/05/24 10:31:38;;;;;;;21.05;2.70;;;22.50;23.60;;;;;;5030200;28;20093;-51
2021/05/24 10:34:21;;;;;;;20.67;2.83;;;22.50;23.70;;;;;;5031014;28;20475;-50
2021/05/24 10:37:07;;;;;;;14.18;2.58;;;22.40;23.80;;;;;;5030453;28;20081;-53
2021/05/24 10:39:56;;;;;;;10.52;2.50;;;22.30;24.00;;;;;;5030087;28;20074;-50
2021/05/24 10:42:45;;;;;;;11.43;2.42;;;22.30;24.50;;;;;;5029767;28;20548;-49
2021/05/24 10:45:21;;;;;;;11.70;2.33;;;22.30;25.10;;;;;;5029701;28;20094;-50
2021/05/24 10:47:55;;;;;;;;;;;22.30;25.80;;;;;;5028950;28;20131;-52
2021/05/24 10:50:22;;;;;;;12.75;2.78;;;22.30;26.50;;;;;;5029000;28;20011;-51
2021/05/24 10:53:22;;;;;;;13.93;2.80;;;22.30;27.00;;;;;;5029231;28;20408;-53
2021/05/24 10:55:50;;;;;;;15.00;2.20;;;22.30;27.40;;;;;;5030217;28;20077;-50
2021/05/24 10:58:20;;;;;;;10.85;2.42;;;22.30;27.60;;;;;;5030425;28;20443;-50
2021/05/24 11:01:04;;;;;;;14.18;3.20;;;22.30;28.10;;;;;;5029123;28;20118;-52
2021/05/24 11:03:31;;;;;;;18.63;3.03;;;22.30;28.10;;;;;;5026714;28;20180;-50
2021/05/24 11:06:09;;;;;;;14.85;2.88;;;22.30;28.30;;;;;;5031276;28;20074;-50
2021/05/24 11:08:39;;;;;;;18.92;3.20;;;22.10;28.50;;;;;;5025998;28;20139;-53
2021/05/24 11:11:25;;;;;;;10.98;2.88;;;22.10;28.60;;;;;;5025372;28;20132;-54
2021/05/24 11:14:06;;;;;;;14.23;3.13;;;22.00;28.90;;;;;;5030581;28;20066;-50
2021/05/24 11:16:34;;;;;;;13.70;2.90;;;22.00;28.80;;;;;;5034482;28;20090;-50
2021/05/24 11:19:08;;;;;;;14.40;3.30;;;21.90;28.80;;;;;;5014947;28;20114;-50
2021/05/24 11:21:36;;;;;;;15.35;2.72;;;21.90;28.60;;;;;;5025678;28;20527;-50
2021/05/24 11:24:32;;;;;;;11.18;2.53;;;22.00;28.40;;;;;;5024440;28;20162;-52
2021/05/24 11:27:10;;;;;;;14.38;2.63;;;22.00;28.00;;;;;;5022681;28;20105;-53
2021/05/24 11:29:39;;;;;;;12.45;2.35;;;21.90;27.60;;;;;;5027380;28;20089;-53
2021/05/24 11:32:29;;;;;;;10.82;2.72;;;21.90;27.20;;;;;;5026331;28;20105;-50
2021/05/24 11:34:56;;;;;;;10.57;2.55;;;21.80;27.20;;;;;;5033284;28;20531;-54
2021/05/24 11:37:42;;;;;;;19.08;2.75;;;21.80;27.20;;;;;;5027892;28;20078;-49
2021/05/24 11:40:17;;;;;;;17.38;2.38;;;21.70;27.30;;;;;;5022350;28;20110;-52
2021/05/24 11:42:43;;;;;;;11.00;2.60;;;21.70;27.40;;;;;;5028793;28;20589;-50
2021/05/24 11:45:22;;;;;;;10.32;2.10;;;21.70;27.60;;;;;;5032423;28;20077;-49
2021/05/24 11:47:59;;;;;;;17.67;2.60;;;21.70;27.90;;;;;;5032559;28;20074;-50
2021/05/24 11:50:27;;;;;;;16.63;2.78;;;21.70;27.60;;;;;;5024095;28;20077;-50
2021/05/24 11:52:54;;;;;;;14.35;2.78;;;21.60;27.40;;;;;;5028673;28;20086;-49
2021/05/24 11:55:21;;;;;;;16.75;2.58;;;21.60;27.30;;;;;;5026340;28;20093;-51
2021/05/24 11:57:48;;;;;;;16.02;2.58;;;21.60;27.10;;;;;;5023517;28;20074;-53
2021/05/24 12:00:18;;;;;;;20.67;2.80;;;21.50;26.80;;;;;;5041235;28;20101;-50
2021/05/24 12:02:45;;;;;;;12.80;2.70;;;21.60;26.90;;;;;;5052960;28;20088;-52
2021/05/24 12:05:18;;;;;;;17.73;3.25;;;21.40;36.50;;;;;;5051658;28;20112;-50
2021/05/24 12:07:46;;;;;;;20.67;2.72;;;21.40;26.70;;;;;;5052499;28;20084;-53
2021/05/24 12:10:13;;;;;;;17.73;3.20;;;21.50;26.80;;;;;;5052548;28;20078;-49
2021/05/24 12:12:39;;;;;;;23.30;2.90;;;20.90;40.90;;;;;;5052904;28;20107;-50
2021/05/24 12:15:07;;;;;;;22.85;3.65;;;21.40;26.80;;;;;;5035174;28;20077;-50
2021/05/24 12:17:35;;;;;;;20.15;3.85;;;21.50;37.80;;;;;;5052122;28;20089;-53
2021/05/24 12:20:06;;;;;;;22.95;4.15;;;21.30;26.20;;;;;;5052022;28;20172;-51
2021/05/24 12:22:39;;;;;;;22.65;4.05;;;21.20;25.80;;;;;;5051458;28;20086;-53
2021/05/24 12:25:07;;;;;;;24.25;3.83;;;21.20;25.80;;;;;;5052289;28;20077;-55
2021/05/24 12:27:34;;;;;;;19.98;4.05;;;21.20;26.30;;;;;;5052807;28;20131;-55
2021/05/24 12:30:18;;;;;;;18.33;3.78;;;21.20;26.40;;;;;;5052458;28;20531;-54
2021/05/24 12:32:44;;;;;;;17.55;3.90;;;21.20;40.10;;;;;;5052119;28;20078;-53
2021/05/24 12:35:13;;;;;;;20.35;4.30;;;21.20;26.30;;;;;;5052474;28;20110;-52
2021/05/24 12:37:46;;;;;;;21.77;3.88;;;21.20;26.70;;;;;;5052292;28;20078;-53
2021/05/24 12:40:13;;;;;;;20.05;4.22;;;21.20;26.80;;;;;;5034172;28;20066;-51
2021/05/24 12:42:42;;;;;;;27.70;4.53;;;21.10;27.50;;;;;;5049820;28;20181;-51
2021/05/24 12:45:14;;;;;;;23.10;4.38;;;21.00;28.10;;;;;;5051459;28;20073;-52
2021/05/24 12:47:41;;;;;;;19.42;4.45;;;20.90;28.50;;;;;;5052004;28;20085;-51